createdAt,value
2019-03-11T00:02:33.812Z,5.70
2019-03-11T00:05:37.557Z,5.60
2019-03-11T00:08:41.312Z,5.50
2019-03-11T00:11:44.611Z,5.40
2019-03-11T00:14:47.887Z,5.60
2019-03-11T00:17:51.455Z,5.60
2019-03-11T00:20:54.873Z,5.60
2019-03-11T00:23:57.831Z,5.70
2019-03-11T00:27:01.501Z,5.90
2019-03-11T00:30:05.466Z,6.00
2019-03-11T00:33:08.930Z,6.20
2019-03-11T00:36:12.233Z,6.10
2019-03-11T00:39:15.561Z,6.10
2019-03-11T00:42:18.473Z,6.00
2019-03-11T00:45:21.427Z,5.90
2019-03-11T00:48:25.230Z,6.10
2019-03-11T00:51:28.467Z,6.10
2019-03-11T00:54:31.677Z,6.00
2019-03-11T00:57:35.663Z,6.00
2019-03-11T01:00:38.711Z,6.00
2019-03-11T01:03:42.026Z,6.00
2019-03-11T01:06:45.726Z,6.00
2019-03-11T01:09:49.021Z,6.00
2019-03-11T01:12:52.033Z,6.10
2019-03-11T01:15:56.100Z,5.90
2019-03-11T01:18:59.008Z,6.00
2019-03-11T01:22:02.429Z,6.00
2019-03-11T01:25:06.231Z,5.90
2019-03-11T01:28:09.744Z,5.80
2019-03-11T01:31:12.686Z,5.90
2019-03-11T01:34:15.602Z,5.80
2019-03-11T01:37:18.981Z,5.80
2019-03-11T01:40:22.596Z,5.80
2019-03-11T01:43:26.564Z,5.80
2019-03-11T01:46:29.504Z,5.90
2019-03-11T01:49:32.752Z,5.80
2019-03-11T01:52:35.986Z,5.90
2019-03-11T01:55:38.898Z,5.80
2019-03-11T01:58:41.850Z,5.70
2019-03-11T02:01:44.860Z,5.60
2019-03-11T02:04:48.139Z,5.60
2019-03-11T02:07:51.503Z,5.70
2019-03-11T02:10:54.850Z,5.70
2019-03-11T02:13:57.813Z,5.60
2019-03-11T02:17:02.422Z,5.60
2019-03-11T02:20:08.216Z,5.60
2019-03-11T02:23:11.547Z,5.50
2019-03-11T02:26:14.458Z,5.40
2019-03-11T02:29:17.711Z,5.50
2019-03-11T02:32:21.181Z,5.60
2019-03-11T02:35:27.716Z,5.50
2019-03-11T02:38:31.338Z,5.50
2019-03-11T02:41:34.661Z,5.50
2019-03-11T02:44:38.050Z,5.50
2019-03-11T02:47:41.699Z,5.50
2019-03-11T02:50:45.120Z,5.50
2019-03-11T02:53:48.526Z,5.50
2019-03-11T02:56:51.438Z,5.50
2019-03-11T02:59:54.402Z,5.50
2019-03-11T03:03:08.842Z,5.50
2019-03-11T03:06:15.367Z,5.50
2019-03-11T03:09:18.328Z,5.50
2019-03-11T03:12:21.855Z,5.60
2019-03-11T03:15:25.077Z,5.60
2019-03-11T03:18:28.335Z,5.50
2019-03-11T03:21:31.319Z,5.40
2019-03-11T03:24:34.244Z,5.40
2019-03-11T03:27:37.286Z,5.40
2019-03-11T03:30:42.261Z,5.40
2019-03-11T03:33:45.514Z,5.40
2019-03-11T03:36:48.833Z,5.40
2019-03-11T03:39:52.538Z,5.40
2019-03-11T03:42:56.751Z,5.40
2019-03-11T03:46:00.051Z,5.40
2019-03-11T03:49:02.997Z,5.40
2019-03-11T03:52:05.917Z,5.40
2019-03-11T03:55:08.863Z,5.50
2019-03-11T03:58:12.583Z,5.40
2019-03-11T04:01:16.524Z,5.40
2019-03-11T04:04:19.442Z,5.30
2019-03-11T04:07:22.377Z,5.30
2019-03-11T04:10:25.297Z,5.40
2019-03-11T04:13:28.226Z,5.30
2019-03-11T04:16:31.795Z,5.20
2019-03-11T04:19:35.100Z,5.10
2019-03-11T04:22:39.291Z,5.20
2019-03-11T04:25:42.342Z,5.20
2019-03-11T04:28:45.309Z,5.20
2019-03-11T04:31:49.156Z,5.20
2019-03-11T04:34:52.472Z,5.20
2019-03-11T04:37:55.770Z,5.10
2019-03-11T04:40:58.724Z,5.20
2019-03-11T04:44:01.713Z,5.10
2019-03-11T04:47:04.691Z,5.20
2019-03-11T04:50:10.439Z,5.20
2019-03-11T04:53:13.393Z,5.20
2019-03-11T04:56:17.122Z,5.20
2019-03-11T04:59:20.049Z,5.10
2019-03-11T05:02:23.498Z,5.10
2019-03-11T05:05:26.897Z,5.10
2019-03-11T05:08:30.964Z,5.20
2019-03-11T05:11:34.223Z,5.00
2019-03-11T05:14:37.869Z,5.10
2019-03-11T05:17:40.796Z,5.00
2019-03-11T05:20:43.740Z,4.90
2019-03-11T05:23:46.664Z,4.90
2019-03-11T05:26:49.654Z,4.90
2019-03-11T05:29:52.598Z,4.90
2019-03-11T05:32:55.545Z,4.90
2019-03-11T05:35:59.580Z,4.90
2019-03-11T05:39:04.245Z,4.90
2019-03-11T05:42:08.572Z,4.90
2019-03-11T05:45:12.591Z,4.90
2019-03-11T05:48:15.781Z,4.90
2019-03-11T05:51:18.713Z,5.00
2019-03-11T05:54:21.631Z,5.00
2019-03-11T05:57:24.570Z,5.00
2019-03-11T06:00:29.291Z,5.00
2019-03-11T06:03:32.674Z,5.00
2019-03-11T06:06:35.929Z,5.00
2019-03-11T06:09:39.494Z,5.00
2019-03-11T06:12:42.437Z,5.00
2019-03-11T06:15:46.079Z,5.00
2019-03-11T06:18:51.629Z,4.90
2019-03-11T06:22:03.173Z,4.80
2019-03-11T06:25:06.399Z,4.80
2019-03-11T06:28:09.343Z,4.80
2019-03-11T06:31:12.866Z,4.70
2019-03-11T06:34:16.124Z,4.60
2019-03-11T06:37:19.064Z,4.50
2019-03-11T06:40:22.258Z,4.40
2019-03-11T06:43:26.306Z,4.40
2019-03-11T06:46:29.969Z,4.30
2019-03-11T06:49:34.694Z,4.10
2019-03-11T06:52:37.924Z,4.00
2019-03-11T06:55:41.112Z,4.10
2019-03-11T06:58:44.045Z,4.20
2019-03-11T07:01:47.979Z,4.30
2019-03-11T07:04:52.417Z,4.20
2019-03-11T07:07:55.350Z,4.30
2019-03-11T07:10:59.587Z,4.50
2019-03-11T07:14:02.892Z,4.60
2019-03-11T07:17:06.107Z,4.70
2019-03-11T07:20:10.623Z,4.50
2019-03-11T07:23:13.648Z,4.60
2019-03-11T07:26:16.612Z,4.60
2019-03-11T07:29:19.541Z,4.60
2019-03-11T07:32:22.714Z,4.50
2019-03-11T07:35:26.413Z,4.50
2019-03-11T07:38:29.752Z,4.50
2019-03-11T07:41:32.675Z,4.40
2019-03-11T07:44:36.263Z,4.40
2019-03-11T07:47:39.467Z,4.40
2019-03-11T07:50:42.411Z,4.40
2019-03-11T07:53:46.030Z,4.40
2019-03-11T07:56:48.966Z,4.40
2019-03-11T07:59:51.990Z,4.30
2019-03-11T08:02:54.907Z,4.30
2019-03-11T08:05:58.274Z,4.40
2019-03-11T08:09:02.459Z,4.20
2019-03-11T08:12:07.698Z,4.30
2019-03-11T08:15:12.253Z,4.30
2019-03-11T08:18:15.507Z,4.30
2019-03-11T08:21:19.055Z,4.30
2019-03-11T08:24:23.003Z,4.30
2019-03-11T08:27:27.189Z,4.30
2019-03-11T08:30:30.815Z,4.40
2019-03-11T08:33:33.733Z,4.40
2019-03-11T08:36:37.162Z,4.50
2019-03-11T08:39:40.328Z,4.50
2019-03-11T08:42:43.902Z,4.70
2019-03-11T08:45:47.102Z,4.50
2019-03-11T08:48:50.052Z,4.50
2019-03-11T08:51:53.267Z,4.50
2019-03-11T08:54:56.578Z,9.50
2019-03-11T08:57:59.509Z,10.20
2019-03-11T09:01:02.425Z,11.90
2019-03-11T09:04:05.772Z,11.90
2019-03-11T09:07:09.087Z,11.60
2019-03-11T09:10:13.043Z,10.20
2019-03-11T09:13:16.080Z,12.20
2019-03-11T09:16:20.243Z,10.10
2019-03-11T09:19:23.218Z,9.20
2019-03-11T09:22:26.139Z,8.30
2019-03-11T09:25:29.555Z,8.30
2019-03-11T09:28:33.039Z,9.20
2019-03-11T09:31:36.347Z,9.20
2019-03-11T09:34:39.767Z,7.20
2019-03-11T09:37:43.028Z,6.10
2019-03-11T09:40:46.320Z,5.90
2019-03-11T09:43:49.580Z,5.90
2019-03-11T09:46:53.864Z,5.60
2019-03-11T09:49:57.138Z,5.50
2019-03-11T09:53:00.439Z,5.50
2019-03-11T09:56:03.804Z,5.50
2019-03-11T09:59:06.751Z,5.40
2019-03-11T10:02:12.294Z,5.50
2019-03-11T10:05:15.251Z,5.40
2019-03-11T10:08:18.748Z,5.40
2019-03-11T10:11:22.265Z,5.50
2019-03-11T10:14:25.646Z,5.50
2019-03-11T10:17:28.970Z,5.50
2019-03-11T10:20:32.000Z,5.50
2019-03-11T10:23:34.952Z,5.60
2019-03-11T10:26:38.259Z,5.70
2019-03-11T10:29:41.310Z,5.70
2019-03-11T10:32:44.822Z,5.90
2019-03-11T10:35:48.805Z,6.00
2019-03-11T10:38:52.417Z,5.90
2019-03-11T10:41:55.695Z,5.90
2019-03-11T10:44:58.664Z,6.20
2019-03-11T10:48:02.350Z,6.30
2019-03-11T10:51:05.281Z,6.30
2019-03-11T10:54:08.573Z,6.10
2019-03-11T10:57:11.840Z,6.00
2019-03-11T11:00:18.487Z,5.90
2019-03-11T11:03:22.541Z,5.70
2019-03-11T11:06:25.475Z,5.50
2019-03-11T11:09:28.894Z,5.50
2019-03-11T11:12:31.809Z,5.40
2019-03-11T11:15:34.788Z,5.40
2019-03-11T11:18:37.740Z,5.40
2019-03-11T11:21:40.944Z,5.40
2019-03-11T11:24:44.270Z,5.30
2019-03-11T11:27:48.929Z,5.30
2019-03-11T11:30:52.170Z,5.30
2019-03-11T11:33:56.861Z,5.40
2019-03-11T11:37:00.282Z,5.40
2019-03-11T11:40:07.186Z,5.60
2019-03-11T11:43:10.531Z,5.80
2019-03-11T11:46:13.845Z,5.90
2019-03-11T11:49:16.771Z,6.30
2019-03-11T11:52:20.017Z,6.50
2019-03-11T11:55:23.259Z,6.40
2019-03-11T11:58:26.617Z,6.30
2019-03-11T12:01:29.726Z,6.20
2019-03-11T12:04:32.643Z,6.10
2019-03-11T12:07:35.674Z,6.10
2019-03-11T12:10:38.752Z,6.20
2019-03-11T12:13:41.675Z,6.30
2019-03-11T12:16:44.643Z,6.20
2019-03-11T12:19:47.946Z,6.30
2019-03-11T12:22:51.236Z,6.30
2019-03-11T12:25:54.176Z,6.30
2019-03-11T12:28:58.199Z,6.30
2019-03-11T12:32:01.611Z,6.30
2019-03-11T12:35:05.036Z,6.30
2019-03-11T12:38:07.992Z,6.10
2019-03-11T12:41:11.340Z,6.10
2019-03-11T12:44:14.939Z,5.90
2019-03-11T12:47:18.873Z,5.70
2019-03-11T12:50:21.834Z,5.80
2019-03-11T12:53:25.124Z,6.50
2019-03-11T12:56:28.443Z,6.70
2019-03-11T12:59:31.731Z,6.80
2019-03-11T13:02:35.304Z,6.80
2019-03-11T13:05:38.211Z,7.10
2019-03-11T13:08:41.167Z,7.30
2019-03-11T13:11:44.758Z,7.40
2019-03-11T13:14:48.706Z,7.30
2019-03-11T13:17:52.300Z,7.20
2019-03-11T13:20:55.536Z,7.20
2019-03-11T13:23:58.586Z,7.20
2019-03-11T13:27:01.841Z,7.30
2019-03-11T13:30:05.642Z,7.20
2019-03-11T13:33:09.599Z,7.20
2019-03-11T13:36:13.558Z,7.00
2019-03-11T13:39:16.502Z,7.10
2019-03-11T13:42:19.768Z,7.10
2019-03-11T13:45:22.984Z,7.00
2019-03-11T13:48:25.919Z,7.10
2019-03-11T13:51:29.306Z,7.20
2019-03-11T13:54:32.237Z,7.30
2019-03-11T13:57:35.177Z,7.40
2019-03-11T14:00:38.098Z,7.30
2019-03-11T14:03:41.043Z,7.20
2019-03-11T14:06:44.972Z,7.10
2019-03-11T14:09:48.242Z,7.10
2019-03-11T14:12:51.210Z,7.00
2019-03-11T14:15:57.065Z,7.00
2019-03-11T14:19:00.560Z,7.30
2019-03-11T14:22:03.793Z,7.30
2019-03-11T14:25:06.820Z,7.20
2019-03-11T14:28:10.729Z,7.20
2019-03-11T14:31:14.395Z,7.20
2019-03-11T14:34:18.169Z,7.10
2019-03-11T14:37:21.384Z,7.10
2019-03-11T14:40:24.454Z,6.90
2019-03-11T14:43:27.442Z,6.70
2019-03-11T14:46:31.074Z,6.70
2019-03-11T14:49:35.089Z,6.70
2019-03-11T14:52:38.054Z,6.80
2019-03-11T14:55:41.669Z,6.90
2019-03-11T14:58:44.992Z,6.80
2019-03-11T15:01:48.327Z,6.90
2019-03-11T15:04:52.311Z,7.00
2019-03-11T15:07:55.976Z,7.10
2019-03-11T15:10:59.270Z,7.30
2019-03-11T15:14:02.553Z,7.50
2019-03-11T15:17:05.961Z,7.90
2019-03-11T15:20:09.760Z,8.00
2019-03-11T15:23:20.259Z,7.70
2019-03-11T15:26:25.093Z,7.50
2019-03-11T15:29:24.076Z,7.40
2019-03-11T15:32:27.409Z,7.40
2019-03-11T15:35:30.347Z,7.40
2019-03-11T15:38:33.804Z,7.40
2019-03-11T15:41:36.829Z,7.30
2019-03-11T15:44:40.133Z,7.30
2019-03-11T15:47:43.592Z,7.20
2019-03-11T15:50:46.815Z,7.20
2019-03-11T15:53:49.737Z,7.20
2019-03-11T15:56:52.973Z,7.20
2019-03-11T15:59:56.289Z,7.10
2019-03-11T16:02:59.289Z,6.90
2019-03-11T16:06:02.489Z,6.80
2019-03-11T16:09:05.989Z,6.60
2019-03-11T16:12:10.833Z,6.60
2019-03-11T16:15:14.525Z,6.50
2019-03-11T16:18:18.853Z,6.50
2019-03-11T16:21:21.826Z,6.50
2019-03-11T16:24:24.736Z,6.40
2019-03-11T16:27:28.042Z,6.40
2019-03-11T16:30:31.462Z,6.40
2019-03-11T16:33:34.389Z,6.30
2019-03-11T16:36:37.325Z,6.10
2019-03-11T16:39:40.651Z,6.00
2019-03-11T16:42:43.617Z,6.00
2019-03-11T16:45:46.645Z,6.00
2019-03-11T16:48:49.620Z,5.90
2019-03-11T16:51:52.916Z,6.00
2019-03-11T16:54:56.234Z,6.00
2019-03-11T16:57:59.518Z,6.00
2019-03-11T17:01:04.760Z,6.00
2019-03-11T17:04:07.883Z,6.00
2019-03-11T17:07:11.212Z,5.90
2019-03-11T17:10:14.764Z,5.90
2019-03-11T17:13:17.820Z,5.90
2019-03-11T17:16:21.602Z,5.90
2019-03-11T17:19:25.845Z,6.00
2019-03-11T17:22:28.797Z,5.90
2019-03-11T17:25:31.742Z,5.80
2019-03-11T17:28:34.668Z,5.80
2019-03-11T17:31:38.273Z,5.90
2019-03-11T17:34:41.526Z,5.80
2019-03-11T17:37:44.693Z,5.80
2019-03-11T17:40:47.943Z,5.80
2019-03-11T17:43:50.919Z,5.90
2019-03-11T17:46:53.966Z,5.90
2019-03-11T17:49:57.423Z,6.00
2019-03-11T17:53:01.192Z,6.00
2019-03-11T17:56:04.919Z,6.00
2019-03-11T17:59:08.657Z,6.00
2019-03-11T18:02:11.900Z,6.00
2019-03-11T18:05:16.641Z,6.10
2019-03-11T18:08:19.982Z,6.10
2019-03-11T18:11:23.059Z,6.10
2019-03-11T18:14:26.706Z,6.10
2019-03-11T18:17:30.031Z,6.10
2019-03-11T18:20:33.680Z,6.10
2019-03-11T18:23:36.712Z,6.10
2019-03-11T18:26:40.112Z,6.10
2019-03-11T18:29:43.137Z,6.10
2019-03-11T18:32:46.511Z,6.10
2019-03-11T18:35:50.044Z,6.10
2019-03-11T18:38:53.739Z,6.10
2019-03-11T18:41:57.831Z,6.10
2019-03-11T18:45:00.749Z,6.20
2019-03-11T18:48:03.726Z,6.20
2019-03-11T18:51:11.238Z,6.20
2019-03-11T18:54:13.008Z,6.20
2019-03-11T18:57:16.048Z,6.20
2019-03-11T19:00:19.272Z,6.20
2019-03-11T19:03:23.056Z,6.10
2019-03-11T19:06:26.160Z,6.20
2019-03-11T19:09:29.610Z,6.20
2019-03-11T19:12:33.006Z,6.20
2019-03-11T19:15:36.908Z,6.20
2019-03-11T19:18:40.669Z,6.20
2019-03-11T19:21:44.424Z,6.10
2019-03-11T19:24:47.869Z,6.20
2019-03-11T19:27:51.948Z,6.20
2019-03-11T19:30:56.733Z,6.20
2019-03-11T19:33:59.965Z,6.20
2019-03-11T19:37:03.206Z,6.20
2019-03-11T19:40:07.370Z,6.20
2019-03-11T19:43:10.638Z,6.20
2019-03-11T19:46:13.665Z,6.30
2019-03-11T19:49:17.933Z,6.30
2019-03-11T19:52:20.976Z,6.30
2019-03-11T19:55:24.035Z,6.30
2019-03-11T19:58:27.101Z,6.40
2019-03-11T20:01:30.335Z,6.30
2019-03-11T20:04:33.744Z,6.40
2019-03-11T20:07:36.723Z,6.40
2019-03-11T20:10:40.052Z,6.30
2019-03-11T20:13:43.433Z,6.30
2019-03-11T20:16:46.568Z,6.30
2019-03-11T20:19:49.787Z,6.30
2019-03-11T20:22:53.418Z,6.40
2019-03-11T20:25:56.837Z,6.30
2019-03-11T20:29:00.189Z,6.30
2019-03-11T20:32:04.021Z,6.30
2019-03-11T20:35:07.249Z,6.40
2019-03-11T20:38:11.187Z,6.30
2019-03-11T20:41:15.281Z,6.40
2019-03-11T20:44:19.851Z,6.40
2019-03-11T20:47:24.316Z,6.40
2019-03-11T20:50:27.675Z,6.50
2019-03-11T20:53:32.025Z,6.50
2019-03-11T20:56:36.738Z,6.50
2019-03-11T20:59:39.796Z,6.40
2019-03-11T21:02:43.051Z,6.40
2019-03-11T21:05:46.137Z,6.40
2019-03-11T21:08:50.068Z,6.50
2019-03-11T21:11:54.721Z,6.50
2019-03-11T21:14:58.317Z,6.50
2019-03-11T21:18:01.534Z,6.50
2019-03-11T21:21:05.549Z,6.50
2019-03-11T21:24:09.999Z,6.50
2019-03-11T21:27:13.356Z,6.50
2019-03-11T21:30:18.167Z,6.50
2019-03-11T21:33:21.673Z,6.50
2019-03-11T21:36:24.898Z,6.50
2019-03-11T21:39:28.236Z,6.40
2019-03-11T21:42:31.334Z,6.40
2019-03-11T21:45:35.019Z,6.50
2019-03-11T21:48:38.358Z,6.50
2019-03-11T21:51:41.351Z,6.30
2019-03-11T21:54:47.443Z,6.30
2019-03-11T21:57:50.209Z,6.30
2019-03-11T22:00:53.768Z,6.30
2019-03-11T22:03:56.783Z,6.30
2019-03-11T22:07:00.159Z,6.30
2019-03-11T22:10:03.679Z,6.30
2019-03-11T22:13:06.683Z,6.30
2019-03-11T22:16:09.647Z,6.30
2019-03-11T22:19:12.967Z,6.40
2019-03-11T22:22:16.536Z,6.40
2019-03-11T22:25:20.467Z,6.40
2019-03-11T22:28:23.460Z,6.40
2019-03-11T22:31:26.787Z,6.30
2019-03-11T22:34:30.022Z,6.30
2019-03-11T22:37:32.963Z,6.40
2019-03-11T22:40:36.200Z,6.50
2019-03-11T22:43:39.244Z,6.40
2019-03-11T22:46:42.559Z,6.50
2019-03-11T22:49:46.104Z,6.50
2019-03-11T22:52:49.238Z,6.50
2019-03-11T22:55:53.300Z,6.50
2019-03-11T22:58:56.910Z,6.30
2019-03-11T23:02:00.178Z,6.10
2019-03-11T23:05:03.355Z,6.10
2019-03-11T23:08:06.991Z,6.10
2019-03-11T23:11:10.393Z,6.00
2019-03-11T23:14:13.708Z,6.00
2019-03-11T23:17:16.658Z,6.10
2019-03-11T23:20:19.946Z,6.10
2019-03-11T23:23:23.253Z,6.00
2019-03-11T23:26:26.960Z,5.90
2019-03-11T23:29:30.195Z,5.90
2019-03-11T23:32:33.754Z,5.90
2019-03-11T23:35:36.715Z,6.00
2019-03-11T23:38:40.249Z,6.00
2019-03-11T23:41:44.183Z,5.90
2019-03-11T23:44:47.180Z,5.90
2019-03-11T23:47:50.115Z,6.00
2019-03-11T23:50:53.692Z,6.00
2019-03-11T23:53:57.680Z,6.00
2019-03-11T23:57:01.025Z,5.90
